Time;durP1;ratioP1;P1;durP2;ratioP2;P2;SDS_P1;SDS_P2;PMS_P1;PMS_P2;Temp;Humidity;BMP_temperature;BMP_pressure;BME280_temperature;BME280_humidity;BME280_pressure;Samples;Min_cycle;Max_cycle;Signal;HPM_P1;HPM_P2
2022/12/21 00:01:52;;;;;;;10.50;8.27;;;;;;;5.56;100.00;96001.47;5070272;28;20056;-65
2022/12/21 00:04:17;;;;;;;10.40;9.15;;;;;;;5.65;100.00;95997.41;5068662;28;20035;-66
2022/12/21 00:06:42;;;;;;;14.68;9.60;;;;;;;5.71;100.00;95991.75;5067932;28;20055;-65
2022/12/21 00:09:12;;;;;;;17.00;12.60;;;;;;;5.78;100.00;95988.69;5069649;28;20051;-65
2022/12/21 00:11:37;;;;;;;15.95;12.57;;;;;;;5.80;100.00;95984.19;5068335;28;20028;-65
2022/12/21 00:14:04;;;;;;;13.55;10.45;;;;;;;5.77;100.00;95979.19;5069552;28;20078;-65
2022/12/21 00:16:34;;;;;;;14.77;10.93;;;;;;;5.74;100.00;95975.84;5069188;28;20040;-65
2022/12/21 00:19:01;;;;;;;12.82;10.55;;;;;;;5.80;100.00;95977.22;5070345;28;20028;-68
2022/12/21 00:21:36;;;;;;;12.25;9.65;;;;;;;6.03;100.00;95980.06;5068811;28;20036;-66
2022/12/21 00:24:02;;;;;;;24.65;17.95;;;;;;;5.88;100.00;95985.34;5065622;28;20525;-66
2022/12/21 00:26:34;;;;;;;19.52;14.95;;;;;;;5.83;100.00;95971.78;5065748;28;20036;-66
2022/12/21 00:28:59;;;;;;;32.25;25.23;;;;;;;5.84;100.00;95988.28;5069396;28;20086;-64
2022/12/21 00:31:27;;;;;;;26.35;19.77;;;;;;;5.84;100.00;95985.66;5050327;28;20478;-65
2022/12/21 00:33:54;;;;;;;32.63;25.40;;;;;;;5.79;100.00;95990.38;5067364;28;20078;-64
2022/12/21 00:36:20;;;;;;;18.60;16.58;;;;;;;5.69;100.00;95977.94;5085012;28;20033;-64
2022/12/21 00:38:47;;;;;;;20.63;17.42;;;;;;;5.59;100.00;95979.50;5066845;28;20062;-59
2022/12/21 00:41:14;;;;;;;19.80;15.95;;;;;;;5.66;100.00;95975.56;5068327;28;20119;-64
2022/12/21 00:43:41;;;;;;;21.05;16.30;;;;;;;5.65;100.00;95983.47;5067835;28;20132;-64
2022/12/21 00:46:07;;;;;;;13.57;11.80;;;;;;;5.79;100.00;95974.69;5069018;28;20154;-64
2022/12/21 00:48:34;;;;;;;12.90;9.50;;;;;;;5.91;100.00;95970.41;5066186;28;20108;-63
2022/12/21 00:51:04;;;;;;;12.82;8.90;;;;;;;5.85;100.00;95979.50;5062299;28;20059;-64
2022/12/21 00:53:29;;;;;;;7.88;7.07;;;;;;;5.83;100.00;95974.38;5069736;28;20033;-64
2022/12/21 00:55:57;;;;;;;8.45;6.78;;;;;;;5.88;100.00;95966.25;5065915;28;20063;-64
2022/12/21 00:58:23;;;;;;;7.72;5.95;;;;;;;5.98;100.00;95969.06;5057192;28;20155;-59
2022/12/21 01:00:50;;;;;;;9.85;7.85;;;;;;;6.07;100.00;95968.44;5069087;28;20548;-53
2022/12/21 01:03:16;;;;;;;7.53;6.78;;;;;;;6.02;100.00;95973.97;5065727;28;20032;-54
2022/12/21 01:05:45;;;;;;;12.43;6.80;;;;;;;5.95;100.00;95966.63;5067955;28;20036;-55
2022/12/21 01:08:10;;;;;;;7.75;6.80;;;;;;;6.00;100.00;95961.94;5058752;28;20041;-52
2022/12/21 01:10:35;;;;;;;8.10;6.88;;;;;;;6.40;98.85;95960.94;5061845;28;20028;-53
2022/12/21 01:13:01;;;;;;;7.65;6.85;;;;;;;6.26;99.56;95962.72;5067794;28;20055;-53
2022/12/21 01:15:26;;;;;;;9.27;7.32;;;;;;;6.16;100.00;95951.28;5064860;28;20060;-53
2022/12/21 01:17:51;;;;;;;10.35;7.30;;;;;;;6.07;100.00;95954.50;5060172;28;20056;-54
2022/12/21 01:20:17;;;;;;;7.60;6.70;;;;;;;6.02;100.00;95957.47;5062163;28;20060;-63
2022/12/21 01:22:42;;;;;;;11.10;8.45;;;;;;;5.98;100.00;95961.22;5058120;28;20482;-63
2022/12/21 01:25:08;;;;;;;12.18;8.63;;;;;;;5.93;100.00;95961.53;5058723;28;20125;-63
2022/12/21 01:27:34;;;;;;;10.07;8.13;;;;;;;5.92;100.00;95962.47;5064963;28;20046;-64
2022/12/21 01:29:59;;;;;;;10.73;7.72;;;;;;;5.90;100.00;95960.88;5063979;28;20383;-64
2022/12/21 01:32:25;;;;;;;10.82;7.25;;;;;;;5.86;100.00;95957.69;5059087;28;20029;-64
2022/12/21 01:34:50;;;;;;;8.65;7.05;;;;;;;5.81;100.00;95962.34;5064115;28;20453;-59
2022/12/21 01:37:15;;;;;;;8.38;7.20;;;;;;;5.83;100.00;95963.09;5065436;28;20471;-65
2022/12/21 01:39:41;;;;;;;7.78;6.05;;;;;;;5.84;100.00;95972.59;5065169;28;20094;-59
2022/12/21 01:42:10;;;;;;;6.10;5.60;;;;;;;5.88;100.00;95964.44;5062876;28;20537;-59
2022/12/21 01:44:51;;;;;;;10.07;6.70;;;;;;;5.88;100.00;95961.00;5066779;28;20036;-60
2022/12/21 01:47:22;;;;;;;7.47;6.53;;;;;;;5.86;100.00;95968.13;5065476;28;20032;-60
2022/12/21 01:50:27;;;;;;;6.55;5.82;;;;;;;5.82;100.00;95967.50;5065797;28;20494;-60
2022/12/21 01:52:55;;;;;;;6.32;5.65;;;;;;;5.79;100.00;95977.31;5052749;28;20059;-60
2022/12/21 01:55:22;;;;;;;9.00;7.30;;;;;;;5.79;100.00;95974.69;5064813;28;20045;-64
2022/12/21 01:57:48;;;;;;;8.95;6.95;;;;;;;5.79;100.00;95972.09;5064165;28;20036;-67
2022/12/21 02:00:14;;;;;;;8.93;6.30;;;;;;;5.70;100.00;95968.31;5067251;28;20383;-68
2022/12/21 02:02:51;;;;;;;6.57;5.47;;;;;;;5.70;100.00;95973.53;5061698;28;20098;-67
2022/12/21 02:05:23;;;;;;;7.15;5.60;;;;;;;5.77;100.00;95966.13;5062254;28;20060;-68
2022/12/21 02:07:50;;;;;;;9.57;7.00;;;;;;;5.79;100.00;95964.25;5059693;28;20036;-68
2022/12/21 02:10:15;;;;;;;7.50;5.95;;;;;;;5.76;100.00;95970.53;5068386;28;20035;-68
2022/12/21 02:12:43;;;;;;;6.95;6.25;;;;;;;5.82;100.00;95964.88;5066837;28;20028;-67
2022/12/21 02:15:09;;;;;;;7.47;6.18;;;;;;;5.95;100.00;95975.31;5065888;28;20036;-60
2022/12/21 02:17:43;;;;;;;8.68;5.70;;;;;;;5.88;100.00;95974.91;5063988;28;20034;-50
2022/12/21 02:20:44;;;;;;;8.57;6.05;;;;;;;5.84;100.00;95972.59;5063794;28;20060;-52
2022/12/21 02:23:18;;;;;;;5.88;5.28;;;;;;;5.84;100.00;95963.00;5066348;28;20371;-55
2022/12/21 02:25:52;;;;;;;6.88;5.47;;;;;;;5.82;100.00;95967.50;5063609;28;20037;-55
2022/12/21 02:28:38;;;;;;;10.25;5.32;;;;;;;5.88;100.00;95961.00;5065322;28;20043;-55
2022/12/21 02:31:06;;;;;;;8.77;5.80;;;;;;;5.83;100.00;95963.09;5064302;28;20025;-55
2022/12/21 02:33:50;;;;;;;13.35;5.68;;;;;;;5.80;100.00;95971.13;5062190;28;20033;-60
2022/12/21 02:36:34;;;;;;;7.50;5.68;;;;;;;5.84;100.00;95970.84;5083553;28;20051;-58
2022/12/21 02:39:18;;;;;;;10.07;5.80;;;;;;;5.72;100.00;95964.69;5067665;28;20585;-60
2022/12/21 02:41:58;;;;;;;8.55;6.28;;;;;;;5.64;100.00;95961.75;5063140;28;20119;-60
2022/12/21 02:44:42;;;;;;;10.98;6.85;;;;;;;6.10;100.00;95970.00;5060804;28;20506;-60
2022/12/21 02:47:28;;;;;;;9.05;6.72;;;;;;;6.13;100.00;95977.63;5061911;28;20417;-59
2022/12/21 02:49:57;;;;;;;8.60;5.93;;;;;;;5.89;100.00;95983.59;5066517;28;20509;-59
2022/12/21 02:52:55;;;;;;;9.90;6.82;;;;;;;5.80;100.00;95986.81;5061293;28;20029;-60
2022/12/21 02:55:20;;;;;;;10.00;6.57;;;;;;;5.69;100.00;95985.78;5059440;28;20457;-64
2022/12/21 02:57:45;;;;;;;9.48;6.03;;;;;;;5.64;100.00;95968.75;5064172;28;20040;-60
2022/12/21 03:00:20;;;;;;;9.50;5.78;;;;;;;5.61;100.00;95982.84;5060195;28;20517;-60
2022/12/21 03:03:47;;;;;;;31.80;19.63;;;;;;;5.58;100.00;95985.66;5064248;28;20024;-59
2022/12/21 03:06:15;;;;;;;14.65;10.07;;;;;;;5.59;100.00;95971.66;5064646;28;20044;-59
2022/12/21 03:09:05;;;;;;;10.77;8.50;;;;;;;5.61;100.00;95972.41;5034509;28;20040;-60
2022/12/21 03:11:48;;;;;;;8.30;6.82;;;;;;;5.55;100.00;95973.66;5066836;28;20040;-60
2022/12/21 03:14:31;;;;;;;8.38;6.13;;;;;;;5.53;100.00;95980.78;5069008;28;20530;-64
2022/12/21 03:17:06;;;;;;;6.90;6.05;;;;;;;5.54;100.00;95978.97;5062033;28;20063;-60
2022/12/21 03:19:41;;;;;;;6.63;5.47;;;;;;;5.47;100.00;95983.78;5066134;28;20064;-59
2022/12/21 03:22:33;;;;;;;7.35;5.60;;;;;;;5.47;100.00;95988.19;5060899;28;20171;-59
2022/12/21 03:25:09;;;;;;;28.77;15.98;;;;;;;5.48;100.00;95982.84;5057667;28;20543;-61
2022/12/21 03:27:41;;;;;;;17.08;11.18;;;;;;;5.48;100.00;95971.56;5062675;28;20387;-60
2022/12/21 03:30:11;;;;;;;16.30;10.80;;;;;;;5.47;100.00;95965.50;5065106;28;20040;-60
2022/12/21 03:32:48;;;;;;;9.52;6.45;;;;;;;5.44;100.00;95966.56;5063169;28;20021;-68
2022/12/21 03:35:26;;;;;;;12.52;7.18;;;;;;;5.41;100.00;95965.91;5063962;28;20064;-67
2022/12/21 03:37:54;;;;;;;11.95;8.10;;;;;;;5.38;100.00;95959.13;5064142;28;20036;-68
2022/12/21 03:40:29;;;;;;;18.55;12.00;;;;;;;5.37;100.00;95957.44;5064562;28;20379;-67
2022/12/21 03:43:04;;;;;;;24.85;12.50;;;;;;;5.36;100.00;95953.16;5059162;28;20037;-68
2022/12/21 03:46:09;;;;;;;22.77;13.80;;;;;;;5.36;100.00;95954.97;5065192;28;20036;-67
2022/12/21 03:48:56;;;;;;;12.48;8.20;;;;;;;5.34;100.00;95947.22;5058616;28;20498;-67
2022/12/21 03:51:25;;;;;;;9.38;6.30;;;;;;;5.36;100.00;95958.38;5065310;28;20037;-60
2022/12/21 03:54:01;;;;;;;5.85;4.97;;;;;;;5.39;100.00;95950.34;5063341;28;20058;-55
2022/12/21 03:56:31;;;;;;;;;;;;;;;5.37;100.00;95941.78;5062989;28;20999;-54
2022/12/21 03:58:58;;;;;;;28.08;14.85;;;;;;;5.32;100.00;95943.88;5067968;28;19918;-54
2022/12/21 04:01:41;;;;;;;20.73;10.63;;;;;;;5.34;100.00;95952.44;5064512;28;20025;-55
2022/12/21 04:04:21;;;;;;;12.63;7.50;;;;;;;5.34;100.00;95949.81;5058396;28;20507;-56
2022/12/21 04:06:50;;;;;;;11.30;6.65;;;;;;;5.32;100.00;95946.47;5062104;28;20116;-55
2022/12/21 04:09:15;;;;;;;9.25;6.60;;;;;;;5.25;100.00;95938.22;5063587;28;20037;-67
2022/12/21 04:14:26;;;;;;;8.77;5.47;;;;;;;5.30;100.00;95943.16;5061678;28;20087;-59
2022/12/21 04:16:52;;;;;;;5.88;4.97;;;;;;;5.48;100.00;95937.63;5070652;28;20032;-59
2022/12/21 04:22:01;;;;;;;5.45;4.63;;;;;;;5.44;100.00;95940.44;5066495;28;20055;-59
2022/12/21 04:30:05;;;;;;;5.03;3.45;;;;;;;5.69;100.00;95937.91;5067027;28;20031;-59
2022/12/21 04:32:31;;;;;;;22.40;20.15;;;;;;;5.77;100.00;95934.78;5069494;28;20056;-59
2022/12/21 04:34:56;;;;;;;5.70;4.60;;;;;;;5.91;100.00;95932.06;5073303;28;20579;-59
2022/12/21 04:37:30;;;;;;;6.93;5.30;;;;;;;5.88;100.00;95940.09;5066865;28;20024;-59
2022/12/21 04:39:56;;;;;;;10.32;5.90;;;;;;;5.75;100.00;95932.28;5059192;28;20028;-59
2022/12/21 04:42:21;;;;;;;9.20;6.10;;;;;;;5.76;100.00;95939.19;5068907;28;20035;-59
2022/12/21 04:44:47;;;;;;;6.40;5.80;;;;;;;5.70;100.00;95935.22;5065995;28;20044;-59
2022/12/21 04:47:12;;;;;;;6.10;4.47;;;;;;;5.74;100.00;95926.22;5069627;28;20048;-59
2022/12/21 04:49:38;;;;;;;9.48;5.30;;;;;;;5.74;100.00;95927.97;5062856;28;20405;-68
2022/12/21 04:52:03;;;;;;;5.88;5.28;;;;;;;5.67;100.00;95927.59;5064164;28;20066;-61
2022/12/21 04:54:28;;;;;;;8.95;5.75;;;;;;;5.65;100.00;95931.22;5067987;28;20032;-61
2022/12/21 04:56:54;;;;;;;7.10;5.63;;;;;;;5.76;100.00;95923.50;5057028;28;20068;-61
2022/12/21 04:59:19;;;;;;;6.30;5.28;;;;;;;5.76;100.00;95928.72;5060203;28;20040;-61
2022/12/21 05:01:44;;;;;;;6.97;5.22;;;;;;;5.82;100.00;95932.66;5070660;28;20025;-62
2022/12/21 05:04:10;;;;;;;7.90;7.10;;;;;;;5.84;100.00;95931.63;5071299;28;20071;-61
2022/12/21 05:06:36;;;;;;;11.82;7.78;;;;;;;5.82;100.00;95930.06;5070364;28;20410;-62
2022/12/21 05:09:01;;;;;;;9.98;8.43;;;;;;;5.65;100.00;95932.09;5071055;28;20060;-64
2022/12/21 05:11:27;;;;;;;11.73;9.15;;;;;;;5.68;100.00;95931.03;5068731;28;20021;-60
2022/12/21 05:13:52;;;;;;;12.40;9.07;;;;;;;5.60;100.00;95928.94;5067569;28;20418;-60
2022/12/21 05:16:20;;;;;;;12.00;9.50;;;;;;;5.48;100.00;95929.78;5064916;28;20041;-60
2022/12/21 05:18:48;;;;;;;14.30;9.23;;;;;;;5.35;100.00;95925.38;5064034;28;20090;-60
2022/12/21 05:21:14;;;;;;;11.52;9.13;;;;;;;5.36;100.00;95921.84;5070940;28;20037;-60
2022/12/21 05:23:39;;;;;;;13.35;10.18;;;;;;;5.31;100.00;95936.97;5055528;28;20521;-61
2022/12/21 05:26:06;;;;;;;11.75;10.55;;;;;;;5.27;100.00;95932.91;5051854;28;20475;-61
2022/12/21 05:28:31;;;;;;;12.85;10.57;;;;;;;5.23;100.00;95928.84;5063359;28;20483;-60
2022/12/21 05:30:57;;;;;;;13.93;11.07;;;;;;;5.35;100.00;95928.00;5067374;28;20108;-61
2022/12/21 05:33:23;;;;;;;11.77;10.50;;;;;;;5.28;100.00;95929.34;5070456;28;20032;-61
2022/12/21 05:35:48;;;;;;;10.82;9.77;;;;;;;5.23;100.00;95936.66;5051844;28;20552;-61
2022/12/21 05:38:14;;;;;;;10.48;9.25;;;;;;;5.20;100.00;95921.22;5051277;28;20033;-61
2022/12/21 05:40:39;;;;;;;11.65;9.70;;;;;;;5.15;100.00;95932.78;5049570;28;20052;-61
2022/12/21 05:43:06;;;;;;;15.13;9.98;;;;;;;5.10;100.00;95924.44;5050395;28;20550;-61
2022/12/21 05:45:31;;;;;;;13.63;11.70;;;;;;;5.07;100.00;95924.63;5056086;28;20031;-61
2022/12/21 05:47:57;;;;;;;11.50;10.23;;;;;;;5.08;100.00;95921.09;5070094;28;20032;-64
2022/12/21 05:50:24;;;;;;;13.98;10.57;;;;;;;5.10;100.00;95928.81;5057201;28;20438;-63
2022/12/21 05:52:49;;;;;;;15.07;9.27;;;;;;;5.09;100.00;95925.38;5040252;28;20499;-64
2022/12/21 05:55:15;;;;;;;11.13;9.48;;;;;;;5.11;100.00;95933.09;5068062;28;20115;-63
2022/12/21 05:57:41;;;;;;;10.93;9.82;;;;;;;5.11;100.00;95930.50;5058076;28;20719;-63
2022/12/21 06:00:07;;;;;;;10.38;8.52;;;;;;;5.11;100.00;95936.53;5050168;28;20032;-63
2022/12/21 06:02:32;;;;;;;11.38;9.63;;;;;;;5.11;100.00;95933.09;5050171;28;20403;-63
2022/12/21 06:04:57;;;;;;;15.38;10.13;;;;;;;5.11;100.00;95933.94;5050353;28;20045;-61
2022/12/21 06:07:23;;;;;;;12.10;10.52;;;;;;;5.14;100.00;95933.72;5050708;28;20534;-69
2022/12/21 06:09:49;;;;;;;11.73;9.93;;;;;;;5.18;100.00;95933.50;5066359;28;20040;-58
2022/12/21 06:12:14;;;;;;;11.98;10.65;;;;;;;5.11;100.00;95938.31;5058843;28;20041;-57
2022/12/21 06:14:39;;;;;;;12.63;11.05;;;;;;;5.10;100.00;95941.88;5054678;28;20028;-57
2022/12/21 06:17:05;;;;;;;17.58;14.02;;;;;;;5.12;100.00;95935.59;5068465;28;20136;-57
2022/12/21 06:19:30;;;;;;;19.88;14.30;;;;;;;5.16;100.00;95937.06;5068542;28;20111;-57
2022/12/21 06:21:55;;;;;;;15.27;12.48;;;;;;;5.15;100.00;95934.56;5068353;28;20131;-57
2022/12/21 06:24:21;;;;;;;15.10;11.82;;;;;;;5.12;100.00;95940.00;5066636;28;20065;-58
2022/12/21 06:26:47;;;;;;;13.07;10.88;;;;;;;5.11;100.00;95941.75;5058256;28;20035;-68
2022/12/21 06:29:12;;;;;;;13.25;11.20;;;;;;;5.11;100.00;95938.31;5052532;28;20151;-57
2022/12/21 06:31:37;;;;;;;14.75;11.48;;;;;;;5.10;100.00;95940.09;5052444;28;20025;-58
2022/12/21 06:34:02;;;;;;;13.98;12.48;;;;;;;5.10;100.00;95941.88;5057587;28;20048;-57
2022/12/21 06:36:28;;;;;;;15.55;12.27;;;;;;;5.08;100.00;95943.72;5069220;28;20033;-58
2022/12/21 06:38:56;;;;;;;12.32;10.98;;;;;;;5.08;100.00;95948.94;5053423;28;20055;-57
2022/12/21 06:41:21;;;;;;;11.73;10.50;;;;;;;5.08;100.00;95943.72;5052594;28;20032;-58
2022/12/21 06:43:46;;;;;;;11.75;10.65;;;;;;;5.13;100.00;95947.72;5058331;28;20043;-66
2022/12/21 06:46:17;;;;;;;13.98;11.60;;;;;;;5.08;100.00;95946.34;5066586;28;20040;-56
2022/12/21 06:48:43;;;;;;;12.93;11.40;;;;;;;5.06;100.00;95956.88;5050442;28;20068;-60
2022/12/21 06:51:13;;;;;;;17.40;13.02;;;;;;;5.11;100.00;95954.00;5064823;28;20126;-61
2022/12/21 06:53:40;;;;;;;12.05;10.85;;;;;;;5.10;100.00;95950.53;5059415;28;20036;-60
2022/12/21 06:56:07;;;;;;;12.98;11.52;;;;;;;5.09;100.00;95951.47;5068050;28;20702;-61
2022/12/21 06:58:33;;;;;;;12.07;10.68;;;;;;;5.11;100.00;95951.38;5068989;28;20039;-61
2022/12/21 07:01:10;;;;;;;12.65;11.15;;;;;;;5.08;100.00;95955.00;5069299;28;20033;-61
2022/12/21 07:03:36;;;;;;;19.92;16.55;;;;;;;5.07;100.00;95963.78;5050067;28;20067;-59
2022/12/21 07:06:02;;;;;;;20.65;15.75;;;;;;;5.08;100.00;95968.06;5050359;28;20037;-67
2022/12/21 07:08:29;;;;;;;15.60;14.10;;;;;;;5.08;100.00;95962.00;5049970;28;20112;-61
2022/12/21 07:10:59;;;;;;;14.82;13.18;;;;;;;5.06;100.00;95967.34;5061711;28;20405;-62
2022/12/21 07:13:26;;;;;;;19.90;16.35;;;;;;;5.06;100.00;95972.56;5056417;28;20037;-62
2022/12/21 07:15:52;;;;;;;16.33;14.63;;;;;;;5.08;100.00;95969.81;5056136;28;20056;-61
2022/12/21 07:18:17;;;;;;;16.92;14.80;;;;;;;5.07;100.00;95970.75;5049863;28;20047;-61
2022/12/21 07:20:43;;;;;;;20.98;17.05;;;;;;;5.05;100.00;95975.25;5050483;28;20033;-61
2022/12/21 07:23:08;;;;;;;17.50;15.70;;;;;;;5.04;100.00;95977.03;5050235;28;20029;-67
2022/12/21 07:25:34;;;;;;;18.02;15.38;;;;;;;5.04;100.00;95965.75;5051849;28;20037;-67
2022/12/21 07:27:59;;;;;;;18.80;16.80;;;;;;;5.12;100.00;95977.34;5050473;28;20067;-62
2022/12/21 07:30:25;;;;;;;23.00;20.58;;;;;;;5.11;100.00;95978.28;5051088;28;20418;-62
2022/12/21 07:32:54;;;;;;;22.75;20.38;;;;;;;5.13;100.00;95973.81;5050709;28;20044;-62
2022/12/21 07:35:21;;;;;;;20.73;18.52;;;;;;;5.14;100.00;95979.88;5052209;28;20052;-62
2022/12/21 07:37:47;;;;;;;20.88;17.95;;;;;;;5.14;100.00;95979.88;5061636;28;20121;-62
2022/12/21 07:40:13;;;;;;;23.55;21.02;;;;;;;5.15;100.00;95984.16;5052918;28;20392;-62
2022/12/21 07:42:38;;;;;;;22.67;20.55;;;;;;;5.18;100.00;95977.88;5068593;28;20043;-61
2022/12/21 07:45:04;;;;;;;23.15;20.67;;;;;;;5.19;100.00;95982.16;5068570;28;20390;-69
2022/12/21 07:47:29;;;;;;;23.02;20.63;;;;;;;5.21;100.00;95980.31;5064944;28;20112;-69
2022/12/21 07:49:55;;;;;;;23.40;20.92;;;;;;;5.22;100.00;95982.00;5060600;28;20029;-70
2022/12/21 07:52:20;;;;;;;23.20;21.08;;;;;;;5.21;100.00;95977.72;5068926;28;20089;-68
2022/12/21 07:54:46;;;;;;;26.20;22.27;;;;;;;5.20;100.00;95983.88;5060571;28;20523;-67
2022/12/21 07:57:11;;;;;;;24.08;21.58;;;;;;;5.21;100.00;95990.75;5070384;28;20099;-68
2022/12/21 07:59:36;;;;;;;22.58;20.48;;;;;;;5.23;100.00;95978.44;5068515;28;20454;-68
2022/12/21 08:02:02;;;;;;;21.67;19.50;;;;;;;5.24;100.00;95980.94;5066101;28;20032;-58
2022/12/21 08:04:28;;;;;;;19.63;17.63;;;;;;;5.25;100.00;95976.56;5068658;28;20044;-59
2022/12/21 08:06:53;;;;;;;20.80;18.65;;;;;;;5.26;100.00;95973.00;5070686;28;20047;-58
2022/12/21 08:09:18;;;;;;;20.85;18.92;;;;;;;5.27;100.00;95972.88;5068881;28;20025;-58
2022/12/21 08:11:43;;;;;;;20.60;18.55;;;;;;;5.28;100.00;95968.53;5063748;28;20032;-58
2022/12/21 08:14:09;;;;;;;21.95;19.75;;;;;;;5.30;100.00;95977.09;5059393;28;20040;-59
2022/12/21 08:16:34;;;;;;;20.42;18.42;;;;;;;5.33;100.00;95979.47;5069209;28;20059;-59
2022/12/21 08:18:59;;;;;;;25.05;21.75;;;;;;;5.36;100.00;95984.50;5068274;28;20040;-59
2022/12/21 08:21:25;;;;;;;25.30;22.83;;;;;;;5.37;100.00;95985.34;5067326;28;20032;-57
2022/12/21 08:23:50;;;;;;;25.27;22.73;;;;;;;5.40;100.00;95980.72;5068255;28;20127;-57
2022/12/21 08:26:15;;;;;;;29.38;26.40;;;;;;;5.44;100.00;95986.59;5067498;28;20068;-57
2022/12/21 08:28:41;;;;;;;24.30;21.90;;;;;;;5.45;100.00;95990.88;5066560;28;20552;-57
2022/12/21 08:31:15;;;;;;;23.80;20.48;;;;;;;5.42;100.00;95991.94;5065638;28;20043;-56
2022/12/21 08:33:42;;;;;;;22.90;20.15;;;;;;;5.43;100.00;95993.63;5062175;28;20473;-56
2022/12/21 08:36:11;;;;;;;23.05;20.85;;;;;;;5.49;100.00;95994.94;5052593;28;20061;-57
2022/12/21 08:38:37;;;;;;;23.30;20.85;;;;;;;5.53;100.00;95998.22;5068489;28;20525;-57
2022/12/21 08:41:03;;;;;;;23.30;21.02;;;;;;;5.53;100.00;96008.66;5070344;28;20020;-59
2022/12/21 08:43:29;;;;;;;22.50;20.20;;;;;;;5.56;100.00;96016.28;5069524;28;20041;-61
2022/12/21 08:45:54;;;;;;;22.67;20.55;;;;;;;5.58;100.00;96012.63;5051201;28;20588;-60
2022/12/21 08:48:19;;;;;;;22.35;20.30;;;;;;;5.61;100.00;96014.19;5051111;28;20235;-60
2022/12/21 08:50:52;;;;;;;21.83;19.65;;;;;;;5.61;100.00;96024.63;5053613;28;20045;-60
2022/12/21 08:53:17;;;;;;;25.38;23.08;;;;;;;5.58;100.00;96024.84;5064287;28;20567;-60
2022/12/21 08:55:42;;;;;;;24.77;22.17;;;;;;;5.56;100.00;96016.28;5065124;28;20116;-61
2022/12/21 08:58:08;;;;;;;23.50;21.10;;;;;;;5.57;100.00;96025.78;5068288;28;20043;-60
2022/12/21 09:00:33;;;;;;;27.88;23.75;;;;;;;5.61;100.00;96029.03;5057325;28;20064;-62
2022/12/21 09:03:00;;;;;;;21.80;17.20;;;;;;;5.64;100.00;96034.06;5065409;28;20087;-70
2022/12/21 09:05:25;;;;;;;16.85;15.27;;;;;;;5.64;100.00;96034.06;5057662;28;20255;-71
2022/12/21 09:07:51;;;;;;;18.35;16.55;;;;;;;5.72;100.00;96035.22;5068023;28;20032;-71
2022/12/21 09:10:16;;;;;;;18.38;16.40;;;;;;;5.79;100.00;96042.63;5064115;28;20040;-70
2022/12/21 09:12:42;;;;;;;19.85;17.85;;;;;;;5.69;100.00;96045.03;5068412;28;20597;-70
2022/12/21 09:15:08;;;;;;;19.30;17.17;;;;;;;5.65;100.00;96047.03;5067560;28;20390;-71
2022/12/21 09:17:33;;;;;;;17.83;16.02;;;;;;;5.63;100.00;96038.44;5062027;28;20063;-61
2022/12/21 09:19:58;;;;;;;19.35;17.33;;;;;;;5.63;100.00;96037.59;5062271;28;20048;-61
2022/12/21 09:22:25;;;;;;;20.63;18.25;;;;;;;5.63;100.00;96041.03;5052000;28;20171;-59
2022/12/21 09:24:50;;;;;;;21.10;18.77;;;;;;;5.71;100.00;96036.16;5068714;28;20042;-59
2022/12/21 09:27:16;;;;;;;22.15;19.85;;;;;;;5.79;100.00;96034.78;5067086;28;20040;-59
2022/12/21 09:29:41;;;;;;;21.15;19.15;;;;;;;5.84;100.00;96035.31;5069282;28;20040;-59
2022/12/21 09:32:07;;;;;;;22.63;20.15;;;;;;;5.95;100.00;96042.41;5061731;28;20036;-59
2022/12/21 09:34:32;;;;;;;24.08;19.13;;;;;;;6.00;100.00;96041.16;5069113;28;20040;-59
2022/12/21 09:36:59;;;;;;;74.22;62.58;;;;;;;6.03;100.00;96045.41;5059598;28;20123;-70
2022/12/21 09:39:24;;;;;;;41.97;37.47;;;;;;;6.03;100.00;96045.41;5057084;28;20048;-58
2022/12/21 09:41:59;;;;;;;38.42;33.03;;;;;;;6.03;100.00;96045.41;5062164;28;20033;-61
2022/12/21 09:44:27;;;;;;;30.48;24.40;;;;;;;6.10;100.00;96044.03;5065941;28;20111;-61
2022/12/21 09:46:56;;;;;;;24.52;21.70;;;;;;;6.13;100.00;96042.97;5062400;28;20402;-61
2022/12/21 09:49:31;;;;;;;24.73;22.13;;;;;;;6.18;100.00;96038.25;5063392;28;20039;-61
2022/12/21 09:51:59;;;;;;;24.23;21.70;;;;;;;6.30;100.00;96042.66;5059880;28;20367;-61
2022/12/21 09:54:37;;;;;;;44.58;36.75;;;;;;;6.45;100.00;96040.75;5066774;28;20621;-61
2022/12/21 09:57:03;;;;;;;26.20;23.40;;;;;;;6.57;100.00;96039.03;5056497;28;20490;-59
2022/12/21 09:59:29;;;;;;;18.77;16.83;;;;;;;6.68;100.00;96035.66;5061571;28;20043;-61
2022/12/21 10:02:00;;;;;;;20.65;15.85;;;;;;;6.71;100.00;96035.44;5060602;28;20036;-57
2022/12/21 10:04:54;;;;;;;16.75;14.95;;;;;;;6.76;100.00;96032.50;5049257;28;20033;-58
2022/12/21 10:07:47;;;;;;;22.17;18.58;;;;;;;6.80;100.00;96036.56;5063855;28;20062;-57
2022/12/21 10:10:34;;;;;;;21.50;18.48;;;;;;;6.84;100.00;96039.78;5063895;28;20044;-58
2022/12/21 10:13:26;;;;;;;17.10;15.20;;;;;;;6.90;100.00;96048.97;5054846;28;20029;-57
2022/12/21 10:15:58;;;;;;;16.80;14.93;;;;;;;6.96;100.00;96041.53;5060412;28;20068;-59
2022/12/21 10:18:26;;;;;;;17.80;14.07;;;;;;;6.98;100.00;96044.03;5057616;28;20043;-60
2022/12/21 10:21:27;;;;;;;13.02;11.63;;;;;;;6.97;100.00;96029.28;5066187;28;20041;-71
2022/12/21 10:23:55;;;;;;;10.63;9.60;;;;;;;6.99;100.00;96030.00;5058217;28;20498;-71
2022/12/21 10:26:25;;;;;;;13.50;12.10;;;;;;;7.10;100.00;96035.28;5058494;28;20040;-71
2022/12/21 10:28:57;;;;;;;13.18;11.35;;;;;;;6.98;100.00;96025.72;5062828;28;20063;-70
2022/12/21 10:31:44;;;;;;;12.88;11.15;;;;;;;6.91;100.00;96034.94;5046789;28;20427;-71
2022/12/21 10:34:24;;;;;;;13.38;11.98;;;;;;;6.86;100.00;96028.25;5065042;28;20541;-70
2022/12/21 10:36:54;;;;;;;15.05;13.45;;;;;;;6.83;100.00;96023.25;5061308;28;20089;-61
2022/12/21 10:39:20;;;;;;;16.63;14.90;;;;;;;6.80;100.00;96018.25;5061612;28;20509;-61
2022/12/21 10:42:10;;;;;;;15.02;12.98;;;;;;;6.84;100.00;96019.69;5052205;28;20035;-62
2022/12/21 10:44:40;;;;;;;14.50;12.57;;;;;;;6.93;100.00;96004.25;5061664;28;20047;-61
2022/12/21 10:47:16;;;;;;;15.73;14.05;;;;;;;6.95;100.00;96004.97;5050566;28;20086;-61
2022/12/21 10:50:01;;;;;;;14.40;12.27;;;;;;;6.97;100.00;96003.09;5054882;28;20115;-62
2022/12/21 10:52:39;;;;;;;13.90;12.20;;;;;;;7.15;100.00;95996.50;5064054;28;20041;-61
2022/12/21 10:55:24;;;;;;;13.65;12.35;;;;;;;7.22;100.00;96001.31;5062482;28;20534;-59
2022/12/21 10:57:54;;;;;;;17.73;14.50;;;;;;;7.13;100.00;95981.88;5061295;28;20525;-69
2022/12/21 11:00:40;;;;;;;15.27;13.23;;;;;;;7.11;100.00;95987.22;5064392;28;20510;-57
2022/12/21 11:03:20;;;;;;;;;;;;;;;7.20;100.00;95984.88;5063983;28;20102;-57
2022/12/21 11:05:46;;;;;;;17.55;14.13;;;;;;;7.20;100.00;95984.88;5060380;28;19923;-57
2022/12/21 11:08:14;;;;;;;16.00;14.40;;;;;;;7.36;100.00;95985.38;5047206;28;20032;-58
2022/12/21 11:10:47;;;;;;;15.65;13.90;;;;;;;7.40;100.00;95981.56;5065907;28;20033;-56
2022/12/21 11:13:14;;;;;;;22.05;16.40;;;;;;;7.48;100.00;95988.03;5055088;28;20036;-57
2022/12/21 11:15:55;;;;;;;15.23;13.52;;;;;;;7.39;100.00;96000.03;5061566;28;20036;-60
2022/12/21 11:18:38;;;;;;;19.35;13.13;;;;;;;7.39;100.00;95995.63;5071124;28;20044;-63
2022/12/21 11:21:12;;;;;;;13.13;10.65;;;;;;;7.41;100.00;96006.00;5071275;28;20089;-62
2022/12/21 11:23:38;;;;;;;10.75;9.68;;;;;;;7.54;100.00;96003.28;5071124;28;20147;-62
2022/12/21 11:26:14;;;;;;;12.50;9.98;;;;;;;7.44;100.00;95992.66;5057404;28;20537;-63
2022/12/21 11:28:39;;;;;;;13.40;9.40;;;;;;;7.45;100.00;96003.03;5061695;28;20119;-63
2022/12/21 11:31:06;;;;;;;15.85;10.18;;;;;;;7.38;100.00;96001.81;5061285;28;20493;-63
2022/12/21 11:33:32;;;;;;;12.90;10.02;;;;;;;7.39;100.00;95997.41;5068388;28;20429;-56
2022/12/21 11:36:13;;;;;;;14.70;11.57;;;;;;;7.29;100.00;95999.91;5066890;28;20029;-61
2022/12/21 11:38:39;;;;;;;13.05;11.68;;;;;;;7.41;100.00;95990.28;5057665;28;20063;-60
2022/12/21 11:41:28;;;;;;;13.32;11.93;;;;;;;7.29;100.00;95990.25;5060244;28;20095;-60
2022/12/21 11:43:55;;;;;;;14.82;12.88;;;;;;;7.29;100.00;95992.03;5059524;28;20044;-61
2022/12/21 11:46:23;;;;;;;16.75;14.73;;;;;;;7.33;100.00;95982.19;5067881;28;20036;-61